sensor_id;sensor_type;location;lat;lon;timestamp;P1;durP1;ratioP1;P2;durP2;ratioP2
67819;SDS011;54618;52.018;5.576;2022-09-12T00:01:44;5.28;;;4.18;;
67819;SDS011;54618;52.018;5.576;2022-09-12T00:04:10;4.90;;;3.88;;
67819;SDS011;54618;52.018;5.576;2022-09-12T00:06:36;5.78;;;3.70;;
67819;SDS011;54618;52.018;5.576;2022-09-12T00:09:06;5.78;;;3.75;;
67819;SDS011;54618;52.018;5.576;2022-09-12T00:11:38;5.30;;;3.97;;
67819;SDS011;54618;52.018;5.576;2022-09-12T00:14:06;5.93;;;4.60;;
67819;SDS011;54618;52.018;5.576;2022-09-12T00:16:34;7.57;;;4.60;;
67819;SDS011;54618;52.018;5.576;2022-09-12T00:19:00;5.72;;;4.15;;
67819;SDS011;54618;52.018;5.576;2022-09-12T00:21:27;5.95;;;4.57;;
67819;SDS011;54618;52.018;5.576;2022-09-12T00:23:53;5.50;;;4.57;;
67819;SDS011;54618;52.018;5.576;2022-09-12T00:26:19;7.03;;;4.85;;
67819;SDS011;54618;52.018;5.576;2022-09-12T00:28:46;6.15;;;4.90;;
67819;SDS011;54618;52.018;5.576;2022-09-12T00:31:13;7.72;;;5.10;;
67819;SDS011;54618;52.018;5.576;2022-09-12T00:33:44;6.65;;;4.93;;
67819;SDS011;54618;52.018;5.576;2022-09-12T00:36:12;7.05;;;4.95;;
67819;SDS011;54618;52.018;5.576;2022-09-12T00:38:46;5.82;;;4.75;;
67819;SDS011;54618;52.018;5.576;2022-09-12T00:41:14;7.00;;;5.18;;
67819;SDS011;54618;52.018;5.576;2022-09-12T00:43:46;6.43;;;5.07;;
67819;SDS011;54618;52.018;5.576;2022-09-12T00:46:23;6.13;;;4.68;;
67819;SDS011;54618;52.018;5.576;2022-09-12T00:49:15;5.50;;;4.72;;
67819;SDS011;54618;52.018;5.576;2022-09-12T00:51:52;5.40;;;4.57;;
67819;SDS011;54618;52.018;5.576;2022-09-12T00:54:42;6.18;;;4.88;;
67819;SDS011;54618;52.018;5.576;2022-09-12T00:57:11;5.68;;;4.70;;
67819;SDS011;54618;52.018;5.576;2022-09-12T00:59:50;7.07;;;5.22;;
67819;SDS011;54618;52.018;5.576;2022-09-12T01:02:20;6.90;;;4.88;;
67819;SDS011;54618;52.018;5.576;2022-09-12T01:04:47;6.22;;;4.80;;
67819;SDS011;54618;52.018;5.576;2022-09-12T01:07:13;6.18;;;4.82;;
67819;SDS011;54618;52.018;5.576;2022-09-12T01:09:39;5.45;;;4.53;;
67819;SDS011;54618;52.018;5.576;2022-09-12T01:12:06;5.82;;;4.85;;
67819;SDS011;54618;52.018;5.576;2022-09-12T01:14:33;6.03;;;4.60;;
67819;SDS011;54618;52.018;5.576;2022-09-12T01:16:59;5.60;;;4.47;;
67819;SDS011;54618;52.018;5.576;2022-09-12T01:25:07;5.70;;;4.47;;
67819;SDS011;54618;52.018;5.576;2022-09-12T01:28:11;6.40;;;4.40;;
67819;SDS011;54618;52.018;5.576;2022-09-12T01:31:16;6.03;;;4.70;;
67819;SDS011;54618;52.018;5.576;2022-09-12T01:34:01;5.85;;;4.57;;
67819;SDS011;54618;52.018;5.576;2022-09-12T01:36:41;5.55;;;4.65;;
67819;SDS011;54618;52.018;5.576;2022-09-12T01:39:18;6.35;;;4.50;;
67819;SDS011;54618;52.018;5.576;2022-09-12T01:44:33;6.85;;;4.53;;
67819;SDS011;54618;52.018;5.576;2022-09-12T01:47:20;5.78;;;4.90;;
67819;SDS011;54618;52.018;5.576;2022-09-12T01:50:02;7.18;;;5.10;;
67819;SDS011;54618;52.018;5.576;2022-09-12T01:53:05;6.85;;;4.75;;
67819;SDS011;54618;52.018;5.576;2022-09-12T01:55:28;5.55;;;4.30;;
67819;SDS011;54618;52.018;5.576;2022-09-12T01:58:04;6.50;;;4.45;;
67819;SDS011;54618;52.018;5.576;2022-09-12T02:00:34;6.20;;;4.53;;
67819;SDS011;54618;52.018;5.576;2022-09-12T02:03:08;5.53;;;3.83;;
67819;SDS011;54618;52.018;5.576;2022-09-12T02:05:54;5.00;;;4.00;;
67819;SDS011;54618;52.018;5.576;2022-09-12T02:08:28;8.57;;;4.68;;
67819;SDS011;54618;52.018;5.576;2022-09-12T02:11:07;5.10;;;3.95;;
67819;SDS011;54618;52.018;5.576;2022-09-12T02:13:55;5.82;;;4.50;;
67819;SDS011;54618;52.018;5.576;2022-09-12T02:16:44;7.30;;;4.03;;
67819;SDS011;54618;52.018;5.576;2022-09-12T02:19:17;6.03;;;3.58;;
67819;SDS011;54618;52.018;5.576;2022-09-12T02:21:52;5.18;;;3.35;;
67819;SDS011;54618;52.018;5.576;2022-09-12T02:24:34;4.40;;;3.10;;
67819;SDS011;54618;52.018;5.576;2022-09-12T02:27:08;4.47;;;3.55;;
67819;SDS011;54618;52.018;5.576;2022-09-12T02:29:39;4.85;;;3.60;;
67819;SDS011;54618;52.018;5.576;2022-09-12T02:34:49;6.03;;;3.67;;
67819;SDS011;54618;52.018;5.576;2022-09-12T02:40:09;6.47;;;4.00;;
67819;SDS011;54618;52.018;5.576;2022-09-12T02:42:36;4.88;;;4.00;;
67819;SDS011;54618;52.018;5.576;2022-09-12T02:45:02;4.55;;;3.70;;
67819;SDS011;54618;52.018;5.576;2022-09-12T02:47:31;5.80;;;3.72;;
67819;SDS011;54618;52.018;5.576;2022-09-12T02:50:01;4.75;;;3.75;;
67819;SDS011;54618;52.018;5.576;2022-09-12T02:52:29;5.40;;;3.70;;
67819;SDS011;54618;52.018;5.576;2022-09-12T02:54:56;8.40;;;3.85;;
67819;SDS011;54618;52.018;5.576;2022-09-12T02:57:23;5.30;;;3.70;;
67819;SDS011;54618;52.018;5.576;2022-09-12T02:59:50;4.90;;;3.85;;
67819;SDS011;54618;52.018;5.576;2022-09-12T03:05:45;4.80;;;3.60;;
67819;SDS011;54618;52.018;5.576;2022-09-12T03:11:00;5.38;;;4.10;;
67819;SDS011;54618;52.018;5.576;2022-09-12T03:24:11;5.28;;;3.97;;
67819;SDS011;54618;52.018;5.576;2022-09-12T03:26:55;4.55;;;3.20;;
67819;SDS011;54618;52.018;5.576;2022-09-12T03:29:26;5.40;;;3.80;;
67819;SDS011;54618;52.018;5.576;2022-09-12T03:31:54;5.63;;;3.25;;
67819;SDS011;54618;52.018;5.576;2022-09-12T03:34:22;4.13;;;3.35;;
67819;SDS011;54618;52.018;5.576;2022-09-12T03:36:50;5.13;;;3.00;;
67819;SDS011;54618;52.018;5.576;2022-09-12T03:39:19;4.30;;;2.60;;
67819;SDS011;54618;52.018;5.576;2022-09-12T03:41:45;3.47;;;2.72;;
67819;SDS011;54618;52.018;5.576;2022-09-12T03:44:10;4.15;;;3.10;;
67819;SDS011;54618;52.018;5.576;2022-09-12T03:46:36;4.32;;;3.40;;
67819;SDS011;54618;52.018;5.576;2022-09-12T03:49:02;4.30;;;3.50;;
67819;SDS011;54618;52.018;5.576;2022-09-12T03:51:27;4.30;;;3.10;;
67819;SDS011;54618;52.018;5.576;2022-09-12T03:53:53;4.32;;;3.30;;
67819;SDS011;54618;52.018;5.576;2022-09-12T03:56:19;5.30;;;3.00;;
67819;SDS011;54618;52.018;5.576;2022-09-12T03:58:45;4.15;;;3.30;;
67819;SDS011;54618;52.018;5.576;2022-09-12T04:01:15;5.30;;;3.35;;
67819;SDS011;54618;52.018;5.576;2022-09-12T04:03:42;5.43;;;3.20;;
67819;SDS011;54618;52.018;5.576;2022-09-12T04:06:10;4.50;;;3.35;;
67819;SDS011;54618;52.018;5.576;2022-09-12T04:08:37;7.72;;;4.13;;
67819;SDS011;54618;52.018;5.576;2022-09-12T04:11:07;7.35;;;4.13;;
67819;SDS011;54618;52.018;5.576;2022-09-12T04:13:38;4.88;;;3.85;;
67819;SDS011;54618;52.018;5.576;2022-09-12T04:16:05;5.97;;;3.78;;
67819;SDS011;54618;52.018;5.576;2022-09-12T04:18:31;5.47;;;3.60;;
67819;SDS011;54618;52.018;5.576;2022-09-12T04:20:57;5.20;;;3.40;;
67819;SDS011;54618;52.018;5.576;2022-09-12T04:23:27;5.82;;;3.55;;
67819;SDS011;54618;52.018;5.576;2022-09-12T04:25:53;5.07;;;3.20;;
67819;SDS011;54618;52.018;5.576;2022-09-12T04:28:24;5.75;;;4.30;;
67819;SDS011;54618;52.018;5.576;2022-09-12T04:30:50;5.75;;;4.10;;
67819;SDS011;54618;52.018;5.576;2022-09-12T04:33:16;6.53;;;4.55;;
67819;SDS011;54618;52.018;5.576;2022-09-12T04:35:42;6.90;;;4.60;;
67819;SDS011;54618;52.018;5.576;2022-09-12T04:38:09;7.47;;;4.70;;
67819;SDS011;54618;52.018;5.576;2022-09-12T04:40:35;7.35;;;4.63;;
67819;SDS011;54618;52.018;5.576;2022-09-12T04:43:00;7.25;;;4.30;;
67819;SDS011;54618;52.018;5.576;2022-09-12T04:45:26;5.72;;;4.13;;
67819;SDS011;54618;52.018;5.576;2022-09-12T04:47:51;6.70;;;4.88;;
67819;SDS011;54618;52.018;5.576;2022-09-12T04:50:17;6.68;;;4.88;;
67819;SDS011;54618;52.018;5.576;2022-09-12T04:52:42;7.78;;;4.85;;
67819;SDS011;54618;52.018;5.576;2022-09-12T04:55:12;7.13;;;4.78;;
67819;SDS011;54618;52.018;5.576;2022-09-12T04:57:38;7.07;;;4.82;;
67819;SDS011;54618;52.018;5.576;2022-09-12T05:00:04;7.50;;;4.95;;
67819;SDS011;54618;52.018;5.576;2022-09-12T05:02:32;7.22;;;5.20;;
67819;SDS011;54618;52.018;5.576;2022-09-12T05:04:58;7.72;;;5.30;;
67819;SDS011;54618;52.018;5.576;2022-09-12T05:07:24;7.93;;;5.53;;
67819;SDS011;54618;52.018;5.576;2022-09-12T05:09:50;6.68;;;4.88;;
67819;SDS011;54618;52.018;5.576;2022-09-12T05:12:15;7.63;;;5.45;;
67819;SDS011;54618;52.018;5.576;2022-09-12T05:14:41;8.32;;;5.72;;
67819;SDS011;54618;52.018;5.576;2022-09-12T05:17:06;8.60;;;5.88;;
67819;SDS011;54618;52.018;5.576;2022-09-12T05:19:32;8.40;;;5.97;;
67819;SDS011;54618;52.018;5.576;2022-09-12T05:21:58;10.77;;;5.68;;
67819;SDS011;54618;52.018;5.576;2022-09-12T05:24:24;7.63;;;5.57;;
67819;SDS011;54618;52.018;5.576;2022-09-12T05:26:50;7.95;;;6.00;;
67819;SDS011;54618;52.018;5.576;2022-09-12T05:29:15;9.68;;;6.10;;
67819;SDS011;54618;52.018;5.576;2022-09-12T05:31:41;8.00;;;5.90;;
67819;SDS011;54618;52.018;5.576;2022-09-12T05:34:07;9.13;;;5.78;;
67819;SDS011;54618;52.018;5.576;2022-09-12T05:36:33;8.60;;;5.80;;
67819;SDS011;54618;52.018;5.576;2022-09-12T05:38:58;10.20;;;5.97;;
67819;SDS011;54618;52.018;5.576;2022-09-12T05:41:25;8.73;;;6.20;;
67819;SDS011;54618;52.018;5.576;2022-09-12T05:43:58;9.33;;;6.03;;
67819;SDS011;54618;52.018;5.576;2022-09-12T05:46:26;9.30;;;6.18;;
67819;SDS011;54618;52.018;5.576;2022-09-12T05:48:54;9.23;;;6.03;;
67819;SDS011;54618;52.018;5.576;2022-09-12T05:51:21;9.70;;;6.28;;
67819;SDS011;54618;52.018;5.576;2022-09-12T05:53:53;8.55;;;6.22;;
67819;SDS011;54618;52.018;5.576;2022-09-12T05:56:22;7.80;;;5.53;;
67819;SDS011;54618;52.018;5.576;2022-09-12T05:58:54;10.05;;;6.43;;
67819;SDS011;54618;52.018;5.576;2022-09-12T06:01:21;8.77;;;6.18;;
67819;SDS011;54618;52.018;5.576;2022-09-12T06:03:48;10.98;;;6.72;;
67819;SDS011;54618;52.018;5.576;2022-09-12T06:06:16;9.90;;;6.57;;
67819;SDS011;54618;52.018;5.576;2022-09-12T06:08:47;10.10;;;6.78;;
67819;SDS011;54618;52.018;5.576;2022-09-12T06:11:15;9.65;;;6.45;;
67819;SDS011;54618;52.018;5.576;2022-09-12T06:13:45;11.75;;;7.20;;
67819;SDS011;54618;52.018;5.576;2022-09-12T06:16:11;12.05;;;7.28;;
67819;SDS011;54618;52.018;5.576;2022-09-12T06:18:39;12.02;;;6.97;;
67819;SDS011;54618;52.018;5.576;2022-09-12T06:21:09;11.88;;;7.43;;
67819;SDS011;54618;52.018;5.576;2022-09-12T06:23:37;11.70;;;7.13;;
67819;SDS011;54618;52.018;5.576;2022-09-12T06:26:04;11.98;;;7.70;;
67819;SDS011;54618;52.018;5.576;2022-09-12T06:28:31;12.75;;;7.03;;
67819;SDS011;54618;52.018;5.576;2022-09-12T06:31:03;10.82;;;7.45;;
67819;SDS011;54618;52.018;5.576;2022-09-12T06:33:33;11.75;;;7.50;;
67819;SDS011;54618;52.018;5.576;2022-09-12T06:36:03;11.85;;;7.60;;
67819;SDS011;54618;52.018;5.576;2022-09-12T06:38:30;14.10;;;7.95;;
67819;SDS011;54618;52.018;5.576;2022-09-12T06:40:56;13.65;;;8.18;;
67819;SDS011;54618;52.018;5.576;2022-09-12T06:43:22;14.23;;;8.05;;
67819;SDS011;54618;52.018;5.576;2022-09-12T06:45:49;12.82;;;8.48;;
67819;SDS011;54618;52.018;5.576;2022-09-12T06:48:15;12.93;;;8.65;;
67819;SDS011;54618;52.018;5.576;2022-09-12T06:50:40;17.48;;;8.95;;
67819;SDS011;54618;52.018;5.576;2022-09-12T06:53:06;15.80;;;8.02;;
67819;SDS011;54618;52.018;5.576;2022-09-12T06:55:32;12.93;;;8.02;;
67819;SDS011;54618;52.018;5.576;2022-09-12T06:57:57;13.60;;;8.50;;
67819;SDS011;54618;52.018;5.576;2022-09-12T07:00:23;14.43;;;8.52;;
67819;SDS011;54618;52.018;5.576;2022-09-12T07:02:53;13.85;;;8.45;;
67819;SDS011;54618;52.018;5.576;2022-09-12T07:07:46;14.02;;;8.55;;
67819;SDS011;54618;52.018;5.576;2022-09-12T07:10:12;17.92;;;9.38;;
67819;SDS011;54618;52.018;5.576;2022-09-12T07:12:37;16.65;;;9.30;;
67819;SDS011;54618;52.018;5.576;2022-09-12T07:15:03;16.40;;;9.23;;
67819;SDS011;54618;52.018;5.576;2022-09-12T07:17:28;18.50;;;10.50;;
67819;SDS011;54618;52.018;5.576;2022-09-12T07:19:54;16.38;;;9.52;;
67819;SDS011;54618;52.018;5.576;2022-09-12T07:22:20;14.38;;;8.93;;
67819;SDS011;54618;52.018;5.576;2022-09-12T07:24:45;16.17;;;9.10;;
67819;SDS011;54618;52.018;5.576;2022-09-12T07:27:11;17.17;;;10.15;;
67819;SDS011;54618;52.018;5.576;2022-09-12T07:29:37;16.08;;;9.68;;
67819;SDS011;54618;52.018;5.576;2022-09-12T07:32:02;17.55;;;10.02;;
67819;SDS011;54618;52.018;5.576;2022-09-12T07:34:29;16.08;;;9.40;;
67819;SDS011;54618;52.018;5.576;2022-09-12T07:36:55;17.17;;;9.68;;
67819;SDS011;54618;52.018;5.576;2022-09-12T07:39:20;20.48;;;10.68;;
67819;SDS011;54618;52.018;5.576;2022-09-12T07:41:46;19.75;;;10.45;;
67819;SDS011;54618;52.018;5.576;2022-09-12T07:44:11;16.73;;;9.10;;
67819;SDS011;54618;52.018;5.576;2022-09-12T07:46:37;16.63;;;10.52;;
67819;SDS011;54618;52.018;5.576;2022-09-12T07:49:04;17.80;;;10.13;;
67819;SDS011;54618;52.018;5.576;2022-09-12T07:51:30;16.17;;;9.48;;
67819;SDS011;54618;52.018;5.576;2022-09-12T07:53:56;17.70;;;9.60;;
67819;SDS011;54618;52.018;5.576;2022-09-12T07:56:22;18.00;;;10.93;;
67819;SDS011;54618;52.018;5.576;2022-09-12T07:58:49;18.63;;;10.50;;
67819;SDS011;54618;52.018;5.576;2022-09-12T08:01:16;19.10;;;11.30;;
67819;SDS011;54618;52.018;5.576;2022-09-12T08:03:44;19.70;;;10.90;;
67819;SDS011;54618;52.018;5.576;2022-09-12T08:06:12;17.67;;;9.48;;
67819;SDS011;54618;52.018;5.576;2022-09-12T08:08:44;17.13;;;10.05;;
67819;SDS011;54618;52.018;5.576;2022-09-12T08:11:10;16.48;;;9.60;;
67819;SDS011;54618;52.018;5.576;2022-09-12T08:13:38;16.75;;;10.00;;
67819;SDS011;54618;52.018;5.576;2022-09-12T08:16:06;20.27;;;10.98;;
67819;SDS011;54618;52.018;5.576;2022-09-12T08:18:35;17.02;;;10.50;;
67819;SDS011;54618;52.018;5.576;2022-09-12T08:21:05;17.08;;;9.98;;
67819;SDS011;54618;52.018;5.576;2022-09-12T08:23:34;18.92;;;10.02;;
67819;SDS011;54618;52.018;5.576;2022-09-12T08:26:00;20.10;;;10.40;;
67819;SDS011;54618;52.018;5.576;2022-09-12T08:28:27;16.35;;;9.63;;
67819;SDS011;54618;52.018;5.576;2022-09-12T08:30:59;17.23;;;10.18;;
67819;SDS011;54618;52.018;5.576;2022-09-12T08:33:25;18.70;;;9.77;;
67819;SDS011;54618;52.018;5.576;2022-09-12T08:36:01;14.05;;;8.88;;
67819;SDS011;54618;52.018;5.576;2022-09-12T08:38:32;15.77;;;8.95;;
67819;SDS011;54618;52.018;5.576;2022-09-12T08:41:03;15.70;;;9.45;;
67819;SDS011;54618;52.018;5.576;2022-09-12T08:46:31;14.65;;;9.32;;
67819;SDS011;54618;52.018;5.576;2022-09-12T08:49:40;18.02;;;10.23;;
67819;SDS011;54618;52.018;5.576;2022-09-12T08:52:22;15.68;;;9.38;;
67819;SDS011;54618;52.018;5.576;2022-09-12T08:55:02;14.38;;;9.05;;
67819;SDS011;54618;52.018;5.576;2022-09-12T08:57:30;14.85;;;8.95;;
67819;SDS011;54618;52.018;5.576;2022-09-12T08:59:57;13.75;;;8.93;;
67819;SDS011;54618;52.018;5.576;2022-09-12T09:11:31;13.55;;;8.18;;
67819;SDS011;54618;52.018;5.576;2022-09-12T09:17:18;13.55;;;8.13;;
67819;SDS011;54618;52.018;5.576;2022-09-12T09:25:02;11.95;;;7.30;;
67819;SDS011;54618;52.018;5.576;2022-09-12T09:27:40;13.27;;;7.75;;
67819;SDS011;54618;52.018;5.576;2022-09-12T09:30:15;12.57;;;8.13;;
67819;SDS011;54618;52.018;5.576;2022-09-12T09:32:43;12.90;;;7.38;;
67819;SDS011;54618;52.018;5.576;2022-09-12T09:40:58;12.95;;;7.65;;
67819;SDS011;54618;52.018;5.576;2022-09-12T09:43:44;11.27;;;6.72;;
67819;SDS011;54618;52.018;5.576;2022-09-12T09:46:10;13.05;;;7.50;;
67819;SDS011;54618;52.018;5.576;2022-09-12T09:48:39;12.77;;;7.53;;
67819;SDS011;54618;52.018;5.576;2022-09-12T09:51:09;11.18;;;6.95;;
67819;SDS011;54618;52.018;5.576;2022-09-12T09:53:40;12.02;;;7.38;;
67819;SDS011;54618;52.018;5.576;2022-09-12T09:59:11;11.38;;;6.60;;
67819;SDS011;54618;52.018;5.576;2022-09-12T10:04:19;13.52;;;7.72;;
67819;SDS011;54618;52.018;5.576;2022-09-12T10:06:49;13.77;;;8.68;;
67819;SDS011;54618;52.018;5.576;2022-09-12T10:09:22;14.02;;;8.85;;
67819;SDS011;54618;52.018;5.576;2022-09-12T10:11:51;12.48;;;7.55;;
67819;SDS011;54618;52.018;5.576;2022-09-12T10:14:31;12.30;;;7.38;;
67819;SDS011;54618;52.018;5.576;2022-09-12T10:17:20;12.23;;;7.10;;
67819;SDS011;54618;52.018;5.576;2022-09-12T10:19:54;12.90;;;7.63;;
67819;SDS011;54618;52.018;5.576;2022-09-12T10:22:21;10.45;;;7.18;;
67819;SDS011;54618;52.018;5.576;2022-09-12T10:24:53;12.52;;;7.53;;
67819;SDS011;54618;52.018;5.576;2022-09-12T10:27:23;12.38;;;7.20;;
67819;SDS011;54618;52.018;5.576;2022-09-12T10:32:26;10.30;;;6.90;;
67819;SDS011;54618;52.018;5.576;2022-09-12T10:35:19;12.45;;;7.03;;
67819;SDS011;54618;52.018;5.576;2022-09-12T10:37:51;10.00;;;6.38;;
67819;SDS011;54618;52.018;5.576;2022-09-12T10:40:45;10.10;;;6.25;;
67819;SDS011;54618;52.018;5.576;2022-09-12T10:43:29;7.95;;;6.05;;
67819;SDS011;54618;52.018;5.576;2022-09-12T10:48:38;9.88;;;6.47;;
67819;SDS011;54618;52.018;5.576;2022-09-12T10:51:04;10.32;;;6.05;;
67819;SDS011;54618;52.018;5.576;2022-09-12T10:53:39;9.48;;;6.55;;
67819;SDS011;54618;52.018;5.576;2022-09-12T10:56:17;9.63;;;6.03;;
67819;SDS011;54618;52.018;5.576;2022-09-12T11:01:39;9.80;;;5.95;;
67819;SDS011;54618;52.018;5.576;2022-09-12T11:06:36;9.75;;;5.97;;
67819;SDS011;54618;52.018;5.576;2022-09-12T11:14:50;8.30;;;5.47;;
67819;SDS011;54618;52.018;5.576;2022-09-12T11:17:49;8.05;;;5.50;;
67819;SDS011;54618;52.018;5.576;2022-09-12T11:23:34;10.13;;;5.10;;
67819;SDS011;54618;52.018;5.576;2022-09-12T11:26:38;6.18;;;4.75;;
67819;SDS011;54618;52.018;5.576;2022-09-12T11:29:32;6.65;;;4.50;;
67819;SDS011;54618;52.018;5.576;2022-09-12T11:40:55;7.10;;;4.20;;
67819;SDS011;54618;52.018;5.576;2022-09-12T11:46:51;4.93;;;3.85;;
67819;SDS011;54618;52.018;5.576;2022-09-12T11:57:16;4.97;;;3.63;;
67819;SDS011;54618;52.018;5.576;2022-09-12T11:59:54;5.10;;;3.50;;
67819;SDS011;54618;52.018;5.576;2022-09-12T12:08:18;5.57;;;3.72;;
67819;SDS011;54618;52.018;5.576;2022-09-12T12:10:56;4.57;;;3.50;;
67819;SDS011;54618;52.018;5.576;2022-09-12T12:13:25;5.05;;;3.58;;
67819;SDS011;54618;52.018;5.576;2022-09-12T12:15:54;5.45;;;4.03;;
67819;SDS011;54618;52.018;5.576;2022-09-12T12:18:23;5.53;;;3.50;;
67819;SDS011;54618;52.018;5.576;2022-09-12T12:20:51;4.47;;;3.40;;
67819;SDS011;54618;52.018;5.576;2022-09-12T12:23:22;5.53;;;3.72;;
67819;SDS011;54618;52.018;5.576;2022-09-12T12:25:55;4.60;;;3.33;;
67819;SDS011;54618;52.018;5.576;2022-09-12T12:31:05;5.07;;;3.50;;
67819;SDS011;54618;52.018;5.576;2022-09-12T12:43:46;4.50;;;3.50;;
67819;SDS011;54618;52.018;5.576;2022-09-12T12:46:16;4.47;;;3.40;;
67819;SDS011;54618;52.018;5.576;2022-09-12T12:57:03;4.05;;;3.17;;
67819;SDS011;54618;52.018;5.576;2022-09-12T12:59:29;4.47;;;3.55;;
67819;SDS011;54618;52.018;5.576;2022-09-12T13:01:55;4.65;;;3.35;;
67819;SDS011;54618;52.018;5.576;2022-09-12T13:04:25;4.10;;;3.15;;
67819;SDS011;54618;52.018;5.576;2022-09-12T13:06:57;4.82;;;3.40;;
67819;SDS011;54618;52.018;5.576;2022-09-12T13:09:44;6.05;;;3.50;;
67819;SDS011;54618;52.018;5.576;2022-09-12T13:12:17;3.97;;;2.92;;
67819;SDS011;54618;52.018;5.576;2022-09-12T13:14:57;3.92;;;3.10;;
67819;SDS011;54618;52.018;5.576;2022-09-12T13:17:25;4.20;;;3.27;;
67819;SDS011;54618;52.018;5.576;2022-09-12T13:20:06;4.32;;;3.20;;
67819;SDS011;54618;52.018;5.576;2022-09-12T13:22:46;4.50;;;3.33;;
67819;SDS011;54618;52.018;5.576;2022-09-12T13:30:35;3.92;;;2.97;;
67819;SDS011;54618;52.018;5.576;2022-09-12T13:33:49;3.90;;;3.10;;
67819;SDS011;54618;52.018;5.576;2022-09-12T13:41:14;4.25;;;3.03;;
67819;SDS011;54618;52.018;5.576;2022-09-12T13:44:01;4.28;;;3.15;;
67819;SDS011;54618;52.018;5.576;2022-09-12T13:46:29;4.90;;;3.20;;
67819;SDS011;54618;52.018;5.576;2022-09-12T13:48:57;4.35;;;3.30;;
67819;SDS011;54618;52.018;5.576;2022-09-12T13:51:26;4.68;;;3.45;;
67819;SDS011;54618;52.018;5.576;2022-09-12T13:53:56;4.28;;;3.30;;
67819;SDS011;54618;52.018;5.576;2022-09-12T13:56:26;5.07;;;3.10;;
67819;SDS011;54618;52.018;5.576;2022-09-12T13:58:59;3.70;;;2.92;;
67819;SDS011;54618;52.018;5.576;2022-09-12T14:01:39;3.95;;;3.08;;
67819;SDS011;54618;52.018;5.576;2022-09-12T14:04:09;4.10;;;3.42;;
67819;SDS011;54618;52.018;5.576;2022-09-12T14:07:21;3.83;;;3.13;;
67819;SDS011;54618;52.018;5.576;2022-09-12T14:09:56;4.53;;;3.25;;
67819;SDS011;54618;52.018;5.576;2022-09-12T14:14:56;4.05;;;2.95;;
67819;SDS011;54618;52.018;5.576;2022-09-12T14:17:32;3.78;;;3.17;;
67819;SDS011;54618;52.018;5.576;2022-09-12T14:20:21;3.60;;;2.97;;
67819;SDS011;54618;52.018;5.576;2022-09-12T14:22:47;3.38;;;2.75;;
67819;SDS011;54618;52.018;5.576;2022-09-12T14:25:15;4.65;;;3.50;;
67819;SDS011;54618;52.018;5.576;2022-09-12T14:27:44;4.68;;;3.10;;
67819;SDS011;54618;52.018;5.576;2022-09-12T14:30:19;3.80;;;3.00;;
67819;SDS011;54618;52.018;5.576;2022-09-12T14:35:30;3.75;;;3.03;;
67819;SDS011;54618;52.018;5.576;2022-09-12T14:38:04;3.83;;;3.08;;
67819;SDS011;54618;52.018;5.576;2022-09-12T14:40:52;4.07;;;3.05;;
67819;SDS011;54618;52.018;5.576;2022-09-12T14:43:26;3.28;;;2.75;;
67819;SDS011;54618;52.018;5.576;2022-09-12T14:45:57;4.03;;;3.05;;
67819;SDS011;54618;52.018;5.576;2022-09-12T14:48:26;3.97;;;3.10;;
67819;SDS011;54618;52.018;5.576;2022-09-12T14:51:00;3.38;;;2.92;;
67819;SDS011;54618;52.018;5.576;2022-09-12T14:53:32;4.22;;;3.00;;
67819;SDS011;54618;52.018;5.576;2022-09-12T14:56:07;4.13;;;3.00;;
67819;SDS011;54618;52.018;5.576;2022-09-12T14:58:36;3.65;;;2.88;;
67819;SDS011;54618;52.018;5.576;2022-09-12T15:03:49;4.30;;;3.05;;
67819;SDS011;54618;52.018;5.576;2022-09-12T15:06:21;3.22;;;2.58;;
67819;SDS011;54618;52.018;5.576;2022-09-12T15:08:51;3.78;;;2.95;;
67819;SDS011;54618;52.018;5.576;2022-09-12T15:11:18;3.60;;;3.00;;
67819;SDS011;54618;52.018;5.576;2022-09-12T15:13:44;4.40;;;3.33;;
67819;SDS011;54618;52.018;5.576;2022-09-12T15:16:10;4.53;;;3.00;;
67819;SDS011;54618;52.018;5.576;2022-09-12T15:18:36;4.20;;;2.90;;
67819;SDS011;54618;52.018;5.576;2022-09-12T15:21:06;3.80;;;3.00;;
67819;SDS011;54618;52.018;5.576;2022-09-12T15:23:48;3.83;;;3.00;;
67819;SDS011;54618;52.018;5.576;2022-09-12T15:26:16;3.08;;;2.60;;
67819;SDS011;54618;52.018;5.576;2022-09-12T15:28:44;4.18;;;3.30;;
67819;SDS011;54618;52.018;5.576;2022-09-12T15:33:49;4.65;;;3.20;;
67819;SDS011;54618;52.018;5.576;2022-09-12T15:36:15;3.50;;;2.90;;
67819;SDS011;54618;52.018;5.576;2022-09-12T15:38:43;3.50;;;3.00;;
67819;SDS011;54618;52.018;5.576;2022-09-12T15:41:14;3.75;;;2.95;;
67819;SDS011;54618;52.018;5.576;2022-09-12T15:43:45;3.22;;;2.83;;
67819;SDS011;54618;52.018;5.576;2022-09-12T15:46:11;3.38;;;2.80;;
67819;SDS011;54618;52.018;5.576;2022-09-12T15:48:38;4.15;;;3.30;;
67819;SDS011;54618;52.018;5.576;2022-09-12T15:51:14;3.40;;;2.90;;
67819;SDS011;54618;52.018;5.576;2022-09-12T15:53:42;3.63;;;3.00;;
67819;SDS011;54618;52.018;5.576;2022-09-12T15:56:09;4.18;;;3.28;;
67819;SDS011;54618;52.018;5.576;2022-09-12T15:58:34;3.63;;;2.97;;
67819;SDS011;54618;52.018;5.576;2022-09-12T16:01:00;3.88;;;3.00;;
67819;SDS011;54618;52.018;5.576;2022-09-12T16:03:27;3.03;;;2.60;;
67819;SDS011;54618;52.018;5.576;2022-09-12T16:05:59;4.15;;;3.00;;
67819;SDS011;54618;52.018;5.576;2022-09-12T16:08:26;5.82;;;2.90;;
67819;SDS011;54618;52.018;5.576;2022-09-12T16:10:54;3.40;;;2.70;;
67819;SDS011;54618;52.018;5.576;2022-09-12T16:13:29;4.50;;;3.00;;
67819;SDS011;54618;52.018;5.576;2022-09-12T16:15:56;3.92;;;3.08;;
67819;SDS011;54618;52.018;5.576;2022-09-12T16:18:22;3.47;;;2.90;;
67819;SDS011;54618;52.018;5.576;2022-09-12T16:20:51;3.50;;;2.80;;
67819;SDS011;54618;52.018;5.576;2022-09-12T16:23:17;3.55;;;3.08;;
67819;SDS011;54618;52.018;5.576;2022-09-12T16:25:43;3.25;;;2.75;;
67819;SDS011;54618;52.018;5.576;2022-09-12T16:28:08;4.22;;;2.95;;
67819;SDS011;54618;52.018;5.576;2022-09-12T16:30:34;4.82;;;3.00;;
67819;SDS011;54618;52.018;5.576;2022-09-12T16:33:00;3.85;;;2.85;;
67819;SDS011;54618;52.018;5.576;2022-09-12T16:35:26;3.20;;;2.90;;
67819;SDS011;54618;52.018;5.576;2022-09-12T16:37:52;3.75;;;2.95;;
67819;SDS011;54618;52.018;5.576;2022-09-12T16:40:17;3.85;;;3.15;;
67819;SDS011;54618;52.018;5.576;2022-09-12T16:42:46;3.00;;;2.60;;
67819;SDS011;54618;52.018;5.576;2022-09-12T16:45:11;4.15;;;2.92;;
67819;SDS011;54618;52.018;5.576;2022-09-12T16:47:37;3.08;;;2.47;;
67819;SDS011;54618;52.018;5.576;2022-09-12T16:50:03;3.42;;;2.78;;
67819;SDS011;54618;52.018;5.576;2022-09-12T16:52:30;3.85;;;2.97;;
67819;SDS011;54618;52.018;5.576;2022-09-12T16:54:57;3.83;;;2.72;;
67819;SDS011;54618;52.018;5.576;2022-09-12T16:57:23;3.45;;;2.70;;
67819;SDS011;54618;52.018;5.576;2022-09-12T16:59:48;3.60;;;2.70;;
67819;SDS011;54618;52.018;5.576;2022-09-12T17:02:14;3.85;;;3.00;;
67819;SDS011;54618;52.018;5.576;2022-09-12T17:04:40;4.38;;;3.03;;
67819;SDS011;54618;52.018;5.576;2022-09-12T17:07:06;3.40;;;2.70;;
67819;SDS011;54618;52.018;5.576;2022-09-12T17:09:32;3.42;;;2.92;;
67819;SDS011;54618;52.018;5.576;2022-09-12T17:11:57;3.67;;;3.00;;
67819;SDS011;54618;52.018;5.576;2022-09-12T17:14:23;3.72;;;2.83;;
67819;SDS011;54618;52.018;5.576;2022-09-12T17:16:49;4.15;;;2.78;;
67819;SDS011;54618;52.018;5.576;2022-09-12T17:19:16;3.25;;;2.70;;
67819;SDS011;54618;52.018;5.576;2022-09-12T17:21:56;3.90;;;2.80;;
67819;SDS011;54618;52.018;5.576;2022-09-12T17:24:22;3.20;;;2.80;;
67819;SDS011;54618;52.018;5.576;2022-09-12T17:26:48;3.47;;;2.80;;
67819;SDS011;54618;52.018;5.576;2022-09-12T17:29:15;3.35;;;2.50;;
67819;SDS011;54618;52.018;5.576;2022-09-12T17:31:41;3.47;;;2.85;;
67819;SDS011;54618;52.018;5.576;2022-09-12T17:34:07;3.38;;;2.70;;
67819;SDS011;54618;52.018;5.576;2022-09-12T17:36:33;3.67;;;2.80;;